This is the latest recevied weather packets stored in our database for station/object Aldingen. If no packets are shown the sender has not sent any weather packets the latest 1 day(s).
| Time | Temp. | Humidity | Pressure | Rain* | Wind** | Luminosity | Snow |
|---|---|---|---|---|---|---|---|
| 1778101330 | 7.78° C | 94% | 1009.9 hPa | 14.99 mm | - | - | - |
| 1778097730 | 7.78° C | 93% | 1009.7 hPa | 14.48 mm | - | - | - |
| 1778095935 | 8.33° C | 93% | 1009.1 hPa | 14.22 mm | - | - | - |
| 1778090536 | 8.33° C | 90% | 1008.2 hPa | 13.72 mm | - | - | - |
| 1778088730 | 8.89° C | 90% | 1007.8 hPa | 13.46 mm | - | - | - |
| 1778085130 | 9.44° C | 91% | 1007.4 hPa | 13.46 mm | - | - | - |
| 1778079730 | 10° C | 90% | 1007.1 hPa | 12.7 mm | - | - | - |
| 1778068930 | 12.78° C | 82% | 1005.1 hPa | 3.56 mm | - | - | - |
| 1778067137 | 12.78° C | 79% | 1005 hPa | 3.56 mm | - | - | - |
| 1778061734 | 14.44° C | 69% | 1005.2 hPa | 0 mm | - | - | - |
| 1778059931 | 13.89° C | 67% | 1005.3 hPa | 0 mm | - | - | - |
| 1778058131 | 13.89° C | 72% | 1005.4 hPa | 0 mm | - | - | - |
| 1778054532 | 12.78° C | 80% | 1005.4 hPa | 0 mm | - | - | - |
| 1778052731 | 11.67° C | 84% | 1005.5 hPa | 0 mm | - | - | - |
| 1778050932 | 10.56° C | 89% | 1005.5 hPa | 0 mm | - | - | - |
| 1778040131 | 7.22° C | 94% | 1006.3 hPa | 0 mm | - | - | - |
| 1778036532 | 6.67° C | 94% | 1006.7 hPa | 0 mm | - | - | - |
| 1778032932 | 7.22° C | 93% | 1007 hPa | 0 mm | - | - | - |
| 1778031131 | 7.78° C | 92% | 1007.1 hPa | 0 mm | - | - | - |
| 1778029332 | 8.33° C | 94% | 1007.5 hPa | 0 mm | - | - | - |
| 1778020330 | 8.89° C | 93% | 1008 hPa | 0 mm | - | - | - |
| 1778016731 | 9.44° C | 90% | 1008.3 hPa | 3.56 mm | - | - | - |
* Rain since midnight (hover to see other rain measurements)
** Current wind speed in m/s (hover to see current wind gust speed)